Avalon, PA

9:22 AM EDT on August 30, 2014 (GMT -0400)
Pittsburgh International | Change Station
CLOSE
Current Station
Airport
Location: Pittsburgh,
Elevation: 1201 ft
Nearby Weather Stations

Elev 1201 ft 40.48 °N, 80.21 °W | Updated 31 minutes ago

Scattered Clouds
Scattered Clouds
69 °F
Feels Like 69 °F
N
4
Wind Variable Wind from South

Today
High -- | Low -- °F
--% Chance of Precip.
Yesterday
High -- | Low -- °F
Precip. -- in
6:45 AM 7:55 PM
Waxing Crescent, 22% visible
Pressure 30.13 in
Visibility 10.0 miles
Clouds Few 10000 ft
Scattered Clouds 25000 ft
Dew Point 63 °F
Humidity 81%
Rainfall 0.00 in
Snow Depth Not available.
UV 1 out of 12
Pollen 10.20 out of 12
Ozone Good
PM2.5 Moderate
Flu Activity Not available.
METAR KPIT 301251Z 17003KT 10SM FEW100 SCT250 21/17 A3013 RMK AO2 SLP203 T02060172

More Conditions Fewer Conditions

Pressure 30.13 in
Visibility 10.0 miles
Clouds Few 10000 ft
Scattered Clouds 25000 ft
Dew Point 63 °F
Humidity 81%
Rainfall 0.00 in
Snow Depth Not available.
UV 1 out of 12
Pollen 10.20 out of 12
Ozone Good
PM2.5 Moderate
Flu Activity Not available.
METAR KPIT 301251Z 17003KT 10SM FEW100 SCT250 21/17 A3013 RMK AO2 SLP203 T02060172

More Conditions Fewer Conditions

10-Day Weather Forecast

Almanac

Astronomy

Aug. 30, 2014 Rise Set
Actual Time 6:45 AM EDT 7:55 PM EDT
Civil Twilight 6:17 AM EDT 8:23 PM EDT
Nautical Twilight 5:43 AM EDT 8:57 PM EDT
Astronomical Twilight 5:08 AM EDT 9:32 PM EDT
Moon 11:32 AM EDT 10:27 PM EDT
Length of Visible Light 14h 06m
Length of Day
13h 09m
Tomorrow will be 2m 33s shorter.
Waxing Crescent, 22% of the Moon is Illuminated
Today
Waxing Crescent
Sep 2
First Quarter
Sep 8
Full
Sep 15
Last Quarter
Sep 24
New

Today's Extremes

State Highs State Lows

Community

WunderPhotos

Upload Photos

1,748,501 photos uploaded!

WunderBlogs® & News

By Dr. Jeff Masters
Director of Meteorology, Weather Underground
By Kari Strenfel
Meteorologist, Weather Underground
By Christopher C. Burt
Weather Historian, Weather Underground
August 30, 2014
August 30, 2014
August 30, 2014

Nearby

Air Quality

  Air Quality AQ Index Pollutant
Yesterday Moderate
OZONE
Yesterday Moderate
PM2.5
Current Moderate
PM2.5
Current Good
OZONE
Saturday Moderate
OZONE
Saturday Moderate
PM2.5
Sunday Moderate
PM2.5
Sunday Good
OZONE
Monday Moderate
PM2.5
Monday Good
OZONE
Tuesday Moderate
PM2.5
Tuesday Good
OZONE
Wednesday Good
PM2.5
Wednesday Good
OZONE

Snow Depth

Station Depth Elevation
No new snow has been reported.

Earthquake Activity

City Distance Mag. Time & Date
No recent earthquake activity has been reported nearby.
Minimum magnitude displayed is 2.5.

Coastal Water Temperatures

Place Temperature
No Stations Reporting

Nearby Weather Stations